Bourton on the Water, United Kingdom
Current Conditions -  °F | °C
As of 6:50 AM on Saturday 29 Nov 2014 (Local Time) from EGVN Reporting Station
Haze Haze  
Wind Chill: 48°   Ceiling: Unl
Heat Index: 48°   Visibility: 4mi
Dew Point: 46°   Wind: 3mph
Humidity: 93%   Direction: 20°NNE
Pressure: 29.77"   Gusts: NA
Location:  51.87°N, 1.75°W
Report Text: EGVN 290650Z 02003KT 6000 BR SCT100 SCT160 09/08 Q1008 WHT TEMPO 4000 GRN
Loading
Personal Weather Stations






























Interactive Weather Map New forecast layout! Learn more

10-Day Weather Forecast

Advertisements
Track Severe Weather on mobile